LiveATC.Net - Listen to live air traffic control over the Internet!


ICAO: KHGR  IATA: HGR   Airport: Hagerstown Regional Airport-Richard A Henson Field
City: Hagerstown   State/Province: Maryland
Country: United States   Continent: North America
KHGR METAR Weather: KHGR 190909Z AUTO 12003KT 10SM SCT028 14/11 A3030 RMK AO2 T01390106
KHGR Flight Activity (FlightAware)
KHGR Airport Info   (iFlightPlanner)
KHGR VFR Sectional Chart   (iFlightPlanner) 
KHGR IFR Low Chart   (iFlightPlanner) 

KHGR Tower
Feed Status: UP   Listeners: 0
Listen in your browser - HTML5 player (in browser, HTML5)
Click here to listen with your own player (launches your MP3 player)
KHGR Tower Audio Archives
FacilityFrequency
Hagerstown Tower120.300

NOTICE

Unauthorized use prohibited. See LiveATC.net Terms of Service


Airport/ARTCC Code
Frequency Search
(e.g., 124.400, 128.75)
Site-wide search
 


Browse LiveATC Feeds
Top 50 LiveATC Feeds
LiveATC Feed Map
Bad Weather Areas

LiveATC FAQ
Offer LiveATC feed
Contact LiveATC.net
Press Inquiries

LiveATC on iPhone
LiveATC on Android

Windows Phone
Windows 8/10

LiveATC Mobile
(Mobile browser)

ATC Audio Archives
Interesting Recordings

LiveATC Forums


Home Page
About LiveATC.net
Make a Donation
Terms of Use
Privacy Policy

Canadian Air Freqs

AIRMETs/SIGMETs

FAA Airport Status
Nat'l Airspace Status
Arrival Demand Charts


Server Software By:
Icecast.org
Liquidsoap